• Join FlightAware (Why Join?)
  • Login
  • US Flag 
02:31AM EDT


 

Airport Tracker/Info


-or-


 

Live Flight TrackerFlight Track Log ✈ SWA2624 ✈ 30-Apr-2013 ✈ KBWI - KABQ

Flight Track Log - Related Links

Times and Time Zones

All times are in EDT time to prevent confusion due to time zone crossing. See the SWA2624 flight status page for this flight to view local times or setup timezone preferences in your user account.

Time Position Orientation Groundspeed Altitude Reporting Facility
EDT Latitude Longitude Course Direction KTS MPH feet Rate Location/Type
06:47PM 39.1500 -76.6667 270° West 193 222 2,100  Level Potomac TRACON
06:48PM 39.1500 -76.7333 270° West 248 285 5,200 2,400 Climbing Potomac TRACON
06:49PM 39.1833 -76.8333 293° West 289 333 7,000 2,400 Climbing Potomac TRACON
06:50PM 39.2000 -76.9167 284° West 284 327 10,100 2,940 Climbing Potomac TRACON
06:51PM 39.2167 -77.0167 282° West 316 364 12,700 3,300 Climbing Potomac TRACON
06:52PM 39.2000 -77.1500 261° West 358 412 16,400 3,000 Climbing Potomac TRACON
06:54PM 39.0581 -77.4094 235° Southwest 387 445 23,000 2,280 Climbing Washington Center
06:55PM 39.0314 -77.5208 253° West 392 451 24,300 2,040 Climbing Washington Center
06:56PM 38.9869 -77.6906 251° West 419 482 27,100 2,280 Climbing Washington Center
06:57PM 38.9531 -77.8258 252° West 438 504 28,900 1,680 Climbing Washington Center
06:58PM 38.9125 -77.9819 252° West 457 526 30,600 1,800 Climbing Washington Center
06:59PM 38.8719 -78.1406 252° West 457 526 32,600 1,920 Climbing Washington Center
07:00PM 38.8517 -78.2972 261° West 452 520 34,500 1,680 Climbing Washington Center
07:01PM 38.8500 -78.4625 269° West 447 514 36,000 1,560 Climbing Washington Center
07:02PM 38.8503 -78.6250 270° West 452 520 37,600 1,920 Climbing Washington Center
07:03PM 38.8483 -78.7717 269° West 442 509 40,000 1,140 Climbing Washington Center
07:04PM 38.8467 -78.9181 269° West 430 495 40,000  Level Washington Center
07:05PM 38.8425 -79.0619 268° West 418 481 40,000  Level Washington Center
07:06PM 38.8422 -79.2111 270° West 418 481 40,000  Level Washington Center
07:07PM 38.8400 -79.3550 269° West 418 481 40,000  Level Washington Center
07:08PM 38.8372 -79.5014 269° West 418 481 40,000  Level Washington Center
07:09PM 38.8358 -79.6747 269° West 431 496 40,000  Level Washington Center
07:10PM 38.8308 -79.8183 267° West 426 490 40,000  Level Washington Center
07:13PM 38.8175 -80.1811 267° West 412 474 40,000  Level Indianapolis Center
07:14PM 38.8142 -80.3292 268° West 416 479 40,000  Level Indianapolis Center
07:15PM 38.8092 -80.4764 268° West 413 475 40,000  Level Indianapolis Center
07:16PM 38.8058 -80.6225 268° West 412 474 40,000  Level Indianapolis Center
07:17PM 38.8017 -80.7700 268° West 414 476 40,000  Level Indianapolis Center
07:18PM 38.7964 -80.9161 267° West 411 473 40,000  Level Indianapolis Center
07:19PM 38.7911 -81.0892 268° West 406 467 40,000  Level Indianapolis Center
07:20PM 38.7856 -81.2344 267° West 409 471 40,000  Level Indianapolis Center
07:21PM 38.7808 -81.3781 268° West 407 468 40,000  Level Indianapolis Center
07:22PM 38.7742 -81.5364 267° West 410 472 40,000  Level Indianapolis Center
07:23PM 38.7697 -81.6831 268° West 412 474 40,000  Level Indianapolis Center
07:24PM 38.7628 -81.8353 267° West 410 472 40,000  Level Indianapolis Center
07:25PM 38.7561 -81.9803 267° West 410 472 40,000  Level Indianapolis Center
07:26PM 38.7511 -82.1258 268° West 410 472 40,000  Level Indianapolis Center
07:27PM 38.7450 -82.2722 267° West 413 475 40,000  Level Indianapolis Center
07:28PM 38.7400 -82.4189 268° West 413 475 40,000  Level Indianapolis Center
07:29PM 38.7336 -82.5639 267° West 409 471 40,000  Level Indianapolis Center
07:30PM 38.7264 -82.7375 267° West 407 468 40,000  Level Indianapolis Center
07:31PM 38.7203 -82.8808 267° West 406 467 40,000  Level Indianapolis Center
07:32PM 38.7139 -83.0267 267° West 409 471 40,000  Level Indianapolis Center
07:34PM 38.7067 -83.1717 266° West 413 475 40,000  Level Indianapolis Center
07:35PM 38.7003 -83.3200 267° West 413 475 40,000  Level Indianapolis Center
07:36PM 38.6928 -83.4675 266° West 412 474 40,000  Level Indianapolis Center
07:37PM 38.6844 -83.6403 267° West 412 474 40,000  Level Indianapolis Center
07:38PM 38.6767 -83.7886 266° West 413 475 40,000  Level Indianapolis Center
07:39PM 38.6694 -83.9392 267° West 419 482 40,000  Level Indianapolis Center
07:40PM 38.6611 -84.0864 266° West 414 476 40,000  Level Indianapolis Center
07:41PM 38.6536 -84.2358 266° West 417 480 40,000  Level Indianapolis Center
07:42PM 38.6525 -84.3886 270° West 425 489 40,000  Level Indianapolis Center
07:43PM 38.6633 -84.5553 275° West 425 489 40,000  Level Indianapolis Center
07:44PM 38.6725 -84.7072 274° West 425 489 40,000  Level Indianapolis Center
07:45PM 38.6811 -84.8594 274° West 426 490 40,000  Level Indianapolis Center
07:46PM 38.6892 -85.0136 274° West 432 497 40,000  Level Indianapolis Center
07:47PM 38.6983 -85.1681 274° West 433 498 40,000  Level Indianapolis Center
07:48PM 38.7067 -85.3236 274° West 435 501 40,000  Level Indianapolis Center
07:49PM 38.7144 -85.4775 274° West 430 495 40,000  Level Indianapolis Center
07:50PM 38.7225 -85.6328 274° West 433 498 40,000  Level Indianapolis Center
07:51PM 38.7308 -85.8131 273° West 430 495 40,000  Level Indianapolis Center
07:52PM 38.7381 -85.9508 274° West 429 494 40,000  Level Indianapolis Center
07:53PM 38.7453 -86.1017 274° West 426 490 40,000  Level Indianapolis Center
07:54PM 38.7514 -86.2514 273° West 423 487 40,000  Level Indianapolis Center
07:55PM 38.7575 -86.3997 273° West 419 482 40,000  Level Indianapolis Center
07:56PM 38.7644 -86.5769 273° West 416 479 40,000  Level Indianapolis Center
07:57PM 38.7711 -86.7242 273° West 416 479 40,000  Level Indianapolis Center
07:58PM 38.7767 -86.8728 273° West 418 481 40,000  Level Indianapolis Center
07:59PM 38.7828 -87.0206 273° West 418 481 40,000  Level Indianapolis Center
08:00PM 38.7883 -87.1700 273° West 420 483 40,000  Level Indianapolis Center
08:01PM 38.7939 -87.3183 273° West 421 484 40,000  Level Indianapolis Center
08:02PM 38.7992 -87.4967 272° West 418 481 40,000  Level Indianapolis Center
08:03PM 38.8042 -87.6458 273° West 420 483 40,000  Level Indianapolis Center
08:04PM 38.8092 -87.7947 273° West 419 482 40,000  Level Indianapolis Center
08:05PM 38.8131 -87.9442 272° West 419 482 40,000  Level Indianapolis Center
08:06PM 38.8178 -88.0928 272° West 418 481 40,000  Level Indianapolis Center
08:07PM 38.8217 -88.2419 272° West 418 481 40,000  Level Indianapolis Center
08:08PM 38.8258 -88.3900 272° West 416 479 40,000  Level Indianapolis Center
08:10PM 38.8297 -88.5681 272° West 415 478 40,000  Level Kansas City Center
08:11PM 38.8319 -88.7142 271° West 416 479 40,000  Level Kansas City Center
08:12PM 38.8358 -88.8614 272° West 416 479 40,000  Level Kansas City Center
08:13PM 38.8392 -89.0253 272° West 416 479 40,000  Level Kansas City Center
08:14PM 38.8431 -89.1836 272° West 415 478 40,000  Level Kansas City Center
08:15PM 38.8456 -89.3303 271° West 413 475 40,000  Level Kansas City Center
08:16PM 38.8494 -89.4886 272° West 415 478 40,000  Level Kansas City Center
08:17PM 38.8519 -89.6358 271° West 415 478 40,000  Level Kansas City Center
08:18PM 38.8528 -89.7739 270° West 414 476 40,000  Level Kansas City Center
08:19PM 38.8547 -89.9214 271° West 415 478 40,000  Level Kansas City Center
08:20PM 38.8592 -90.0942 272° West 414 476 40,000  Level Kansas City Center
08:21PM 38.8603 -90.2442 271° West 418 481 40,000  Level Kansas City Center
08:22PM 38.8597 -90.3922 270° West 418 481 40,000  Level Kansas City Center
08:23PM 38.8375 -90.5411 259° West 419 482 40,000  Level Kansas City Center
08:24PM 38.8200 -90.6811 261° West 419 482 40,000  Level Kansas City Center
08:25PM 38.7981 -90.8561 261° West 418 481 40,000  Level Kansas City Center
08:26PM 38.7797 -91.0042 261° West 423 487 40,000  Level Kansas City Center
08:27PM 38.7603 -91.1531 261° West 425 489 40,000  Level Kansas City Center
08:28PM 38.7411 -91.3011 261° West 424 488 40,000  Level Kansas City Center
08:29PM 38.7222 -91.4511 261° West 426 490 40,000  Level Kansas City Center
08:30PM 38.7011 -91.6133 261° West 427 491 40,000  Level Kansas City Center
08:31PM 38.6803 -91.7628 260° West 428 493 40,000  Level Kansas City Center
08:32PM 38.6592 -91.9131 260° West 429 494 40,000  Level Kansas City Center
08:33PM 38.6350 -92.0919 260° West 428 493 40,000  Level Kansas City Center
08:34PM 38.6139 -92.2419 260° West 429 494 40,000  Level Kansas City Center
08:35PM 38.5919 -92.3911 259° West 429 494 40,000  Level Kansas City Center
08:36PM 38.5711 -92.5400 260° West 428 493 40,000  Level Kansas City Center
08:37PM 38.5494 -92.6892 260° West 429 494 40,000  Level Kansas City Center
08:38PM 38.5278 -92.8403 260° West 431 496 40,000  Level Kansas City Center
08:40PM 38.5011 -93.0197 259° West 431 496 40,000  Level Kansas City Center
08:41PM 38.4792 -93.1678 259° West 428 493 40,000  Level Kansas City Center
08:42PM 38.4575 -93.3169 260° West 428 493 40,000  Level Kansas City Center
08:43PM 38.4353 -93.4656 259° West 427 491 40,000  Level Kansas City Center
08:44PM 38.4133 -93.6139 259° West 427 491 40,000  Level Kansas City Center
08:45PM 38.3900 -93.7631 259° West 428 493 40,000  Level Kansas City Center
08:46PM 38.3672 -93.9128 259° West 429 494 40,000  Level Kansas City Center
08:47PM 38.3442 -94.0611 259° West 428 493 40,000  Level Kansas City Center
08:48PM 38.3208 -94.2169 259° West 427 491 40,000  Level Kansas City Center
08:49PM 38.2942 -94.3839 259° West 428 493 40,000  Level Kansas City Center
08:50PM 38.2711 -94.5283 259° West 430 495 40,000  Level Kansas City Center
08:51PM 38.2433 -94.6939 258° West 430 495 40,000  Level Kansas City Center
08:52PM 38.2208 -94.8356 259° West 428 493 40,000  Level Kansas City Center
08:53PM 38.1936 -95.0014 258° West 428 493 40,000  Level Kansas City Center
08:54PM 38.1708 -95.1442 259° West 429 494 40,000  Level Kansas City Center
08:55PM 38.1475 -95.2864 258° West 428 493 40,000  Level Kansas City Center
08:56PM 38.1189 -95.4506 258° West 427 491 40,000  Level Kansas City Center
08:57PM 38.0956 -95.5903 258° West 423 487 40,000  Level Kansas City Center
08:58PM 38.0678 -95.7556 258° West 426 490 40,000  Level Kansas City Center
08:59PM 38.0431 -95.8953 257° West 425 489 40,000  Level Kansas City Center
09:00PM 38.0186 -96.0364 258° West 427 491 40,000  Level Kansas City Center
09:01PM 37.9911 -96.1928 257° West 430 495 40,000  Level Kansas City Center
09:02PM 37.9650 -96.3383 257° West 425 489 40,000  Level Kansas City Center
09:03PM 37.9389 -96.4894 258° West 426 490 40,000  Level Kansas City Center
09:04PM 37.9131 -96.6308 257° West 424 488 40,000  Level Kansas City Center
09:05PM 37.8831 -96.8067 258° West 426 490 40,000  Level Kansas City Center
09:06PM 37.8553 -96.9522 256° West 425 489 40,000  Level Kansas City Center
09:07PM 37.8286 -97.0997 257° West 429 494 40,000  Level Kansas City Center
09:08PM 37.8011 -97.2450 257° West 425 489 40,000  Level Kansas City Center
09:09PM 37.7742 -97.3908 257° West 425 489 40,000  Level Kansas City Center
09:10PM 37.7464 -97.5394 257° West 424 488 40,000  Level Kansas City Center
09:11PM 37.7189 -97.6819 256° West 421 484 40,000  Level Kansas City Center
09:12PM 37.6917 -97.8264 257° West 421 484 40,000  Level Kansas City Center
09:13PM 37.6589 -98.0003 257° West 421 484 40,000  Level Kansas City Center
09:14PM 37.6322 -98.1425 257° West 420 483 40,000  Level Kansas City Center
09:16PM 37.6022 -98.2925 256° West 421 484 40,000  Level Kansas City Center
09:17PM 37.5739 -98.4364 256° West 422 486 40,000  Level Kansas City Center
09:18PM 37.5453 -98.5794 256° West 421 484 40,000  Level Kansas City Center
09:19PM 37.5169 -98.7225 256° West 421 484 40,000  Level Kansas City Center
09:20PM 37.4889 -98.8653 256° West 420 483 40,000  Level Kansas City Center
09:21PM 37.4600 -99.0075 256° West 420 483 40,000  Level Kansas City Center
09:22PM 37.4297 -99.1486 255° West 418 481 40,000  Level Kansas City Center
09:23PM 37.4028 -99.2903 257° West 417 480 40,000  Level Kansas City Center
09:24PM 37.3722 -99.4314 255° West 418 481 40,000  Level Kansas City Center
09:25PM 37.3408 -99.5850 256° West 417 480 40,000  Level Kansas City Center
09:26PM 37.3053 -99.7433 254° West 421 484 40,000  Level Kansas City Center
09:27PM 37.2703 -99.8769 252° West 420 483 40,000  Level Kansas City Center
09:28PM 37.2308 -100.0339 253° West 420 483 40,000  Level Kansas City Center
09:29PM 37.1972 -100.1672 252° West 420 483 40,000  Level Kansas City Center
09:30PM 37.1586 -100.3231 253° West 418 481 40,000  Level Kansas City Center
09:31PM 37.1250 -100.4558 252° West 417 480 40,000  Level Kansas City Center
09:32PM 37.0903 -100.5886 252° West 417 480 40,000  Level Kansas City Center
09:33PM 37.0497 -100.7419 252° West 415 478 40,000  Level Kansas City Center
09:34PM 37.0161 -100.8753 253° West 417 480 40,000  Level Kansas City Center
09:35PM 36.9753 -101.0317 252° West 420 483 40,000  Level Kansas City Center
09:36PM 36.9406 -101.1633 252° West 418 481 40,000  Level Kansas City Center
09:37PM 36.9050 -101.2956 251° West 418 481 40,000  Level Kansas City Center
09:38PM 36.8764 -101.4056 252° West 417 480 40,000  Level Albuquerque Center
09:39PM 36.8353 -101.5597 252° West 418 481 40,000  Level Albuquerque Center
09:40PM 36.8000 -101.6911 251° West 418 481 40,000  Level Albuquerque Center
09:41PM 36.7647 -101.8217 251° West 416 479 40,000  Level Albuquerque Center
09:42PM 36.7219 -101.9750 251° West 418 481 40,000  Level Albuquerque Center
09:43PM 36.6861 -102.1067 251° West 419 482 40,000  Level Albuquerque Center
09:44PM 36.6483 -102.2497 252° West 418 481 40,000  Level Albuquerque Center
09:45PM 36.5975 -102.3761 243° Southwest 416 479 40,000  Level Albuquerque Center
09:46PM 36.5333 -102.4967 237° Southwest 418 481 40,000  Level Albuquerque Center
09:47PM 36.4692 -102.6172 237° Southwest 421 484 40,000  Level Albuquerque Center
09:48PM 36.4039 -102.7369 236° Southwest 421 484 40,000  Level Albuquerque Center
09:49PM 36.3272 -102.8792 236° Southwest 416 479 40,000  Level Albuquerque Center
09:50PM 36.2678 -102.9872 236° Southwest 416 479 40,000  Level Albuquerque Center
09:51PM 36.2036 -103.1050 236° Southwest 411 473 40,000  Level Albuquerque Center
09:52PM 36.1375 -103.2222 235° Southwest 411 473 40,000  Level Albuquerque Center
09:53PM 36.0728 -103.3422 236° Southwest 415 478 40,000  Level Albuquerque Center
09:54PM 35.9969 -103.4800 236° Southwest 414 476 40,000  Level Albuquerque Center
09:55PM 35.9303 -103.5992 235° Southwest 418 481 40,000  Level Albuquerque Center
09:56PM 35.8636 -103.7181 235° Southwest 418 481 40,000 -420 Level Albuquerque Center
09:57PM 35.7972 -103.8372 236° Southwest 419 482 39,200 -900 Descending Albuquerque Center
09:58PM 35.7325 -103.9544 236° Southwest 415 478 38,200 -960 Descending Albuquerque Center
09:59PM 35.6675 -104.0697 235° Southwest 410 472 37,300 -960 Descending Albuquerque Center
10:00PM 35.6008 -104.1864 235° Southwest 414 476 36,300 -660 Descending Albuquerque Center
10:01PM 35.5339 -104.3033 235° Southwest 418 481 36,000 -180 Descending Albuquerque Center
10:02PM 35.4678 -104.4206 235° Southwest 418 481 36,000  Level Albuquerque Center
10:03PM 35.4011 -104.5364 235° Southwest 417 480 36,000  Level Albuquerque Center
10:04PM 35.3228 -104.6728 235° Southwest 418 481 36,000  Level Albuquerque Center
10:05PM 35.2553 -104.7903 235° Southwest 420 483 36,000 -420 Level Albuquerque Center
10:06PM 35.1875 -104.9083 235° Southwest 421 484 35,200 -1,740 Descending Albuquerque Center
10:07PM 35.1217 -105.0247 235° Southwest 416 479 32,500 -2,460 Descending Albuquerque Center
10:09PM 35.0956 -105.1586 257° West 407 468 30,200 -2,220 Descending Albuquerque Center
10:10PM 35.0756 -105.2914 260° West 397 457 28,100 -2,220 Descending Albuquerque Center
10:12PM 35.0336 -105.5489 259° West 383 441 23,500 -2,220 Descending Albuquerque Center
10:13PM 35.0139 -105.6714 259° West 370 426 21,300 -2,280 Descending Albuquerque Center
10:13PM 35.0022 -105.7389 258° West 351 404 20,100 -2,040 Descending Albuquerque Center
10:14PM 34.9936 -105.7864 258° West 351 404 19,200 -2,040 Descending Albuquerque Center
10:15PM 34.9750 -105.9044 259° West 333 383 17,000 -1,740 Descending Albuquerque Center
10:16PM 34.9581 -106.0075 259° West 316 364 15,700 -1,440 Descending Albuquerque Center
10:18PM 34.9586 -106.2075 270° West 301 346 12,600 -1,440 Descending Albuquerque Center
10:19PM 34.9589 -106.3289 270° West 285 328 11,100 -1,260 Descending Albuquerque Center
10:20PM 34.9369 -106.4100 252° West 249 287 10,000 -840 Descending Albuquerque Center
10:21PM 34.9189 -106.4669 249° West 254 292 9,500 -840 Descending Albuquerque Center
10:22PM 34.9375 -106.5236 292° West 216 249 8,400 -1,080 Descending Albuquerque Center
10:23PM 34.9867 -106.5250 359° North 196 226 7,400 -960 Descending Albuquerque Center
10:24PM 35.0342 -106.5142 11° North 146 168 6,500 -840 Descending Albuquerque Center
10:25PM 35.0433 -106.5533 286° West 117 135 5,800 -600 Descending Albuquerque Center
10:26PM 35.0442 -106.5925 271° West 134 154 5,300 -480 Descending Albuquerque Center
10:28PM 35.0333 -106.6000 270° West  Level FlightAware Approximate